Duckwater, Nevada Weather observations

Data are for 10 minute period ending at time listed.
 Day   Time   Solar   Ave.   Ave.  Ave.  Vector  Max.   Baro.   Total    
  of    of     Rad.   Air    Rel.  Wind   Wind   Wind  Press.  Precip.   
Year   Day            Temp.  Hum.  Speed  Dir.   Gust                    
2017   (PST)   w/m2    F      %     mph   deg.    mph    mb.     in.    
-----------------------------------------------------------------------
  35   20:10     -1   33.6    90    2.6   332     5.0   833.0   0.00  
  35   20:20     -1   34.0    89    2.4    52     4.2   833.0   0.00  
  35   20:30      0   35.1    87    2.0    57     4.2   833.0   0.00  
  35   20:40      0   34.7    86    1.5   304     3.9   833.1   0.00  
  35   20:50      0   35.7    86    0.9   102     2.8   833.2   0.00  
  35   21:00      0   36.2    84    0.3   100     1.5   833.3   0.00  
  35   21:10      0   35.7    85    0.7   140     3.7   833.4   0.00  
  35   21:20      0   35.2    86    0.1   189     0.7   833.4   0.00  
  35   21:30      0   34.5    86    1.8   283     4.6   833.4   0.00  
  35   21:40      0   34.7    88    0.7   283     1.7   833.5   0.00  
  35   21:50      0   35.0    88    0.2   284     1.1   833.5   0.00  
  35   22:00      0   35.4    87    0.1   284     0.8   833.6   0.00  
  35   22:10      0   35.6    86    0.4   284     1.2   833.6   0.00  
  35   22:20      0   35.9    86    0.6    69     2.5   833.7   0.00  
  35   22:30      0   35.8    85    0.9    90     3.1   833.8   0.00  
  35   22:40      0   34.6    87    0.0   254     0.5   833.8   0.00  
  35   22:50      0   35.2    88    1.6   190     4.7   833.9   0.00  
  35   23:00      0   36.0    86    1.6   158     2.8   833.9   0.00  
  35   23:10      0   35.8    86    1.2   167     4.5   833.9   0.00  
  35   23:20      0   35.3    87    1.8   294     4.2   834.0   0.00  
  35   23:30      0   35.2    87    0.1   239     1.1   833.9   0.00  
  35   23:40      0   34.8    88    2.0   204     3.1   833.7   0.00  
  35   23:50      0   34.7    89    2.8   173     4.9   833.7   0.00  
  36    0:00      0   35.7    88    5.4   125     7.6   833.7   0.00  
  36    0:10      0   36.1    87    5.6   137     7.5   833.7   0.00  
  36    0:20      0   35.8    87    5.1   135     7.1   833.7   0.00  
  36    0:30      0   35.4    88    4.2   135     6.4   833.7   0.00  
  36    0:40      0   35.8    87    5.0   112     7.4   833.8   0.00  
  36    0:50      0   36.0    86    4.2   111     5.7   833.8   0.00  
  36    1:00      0   35.6    87    4.5   124     6.6   833.8   0.00  
  36    1:10      0   34.8    87    2.8   127     4.8   833.9   0.00  
  36    1:20      0   33.5    89    2.0   351     3.3   833.9   0.00  
  36    1:30      0   33.7    90    2.7   341     4.2   834.0   0.00  
  36    1:40      0   33.8    90    1.2    14     3.7   834.0   0.00  
  36    1:50      0   33.6    90    0.6    27     1.7   834.0   0.00  
  36    2:00      0   32.7    91    0.8   339     1.7   834.0   0.00  
  36    2:10     -1   32.5    92    1.5   343     2.8   834.0   0.00  
  36    2:20      0   31.8    92    1.0     1     2.8   834.0   0.00  
  36    2:30      0   30.7    92    1.1     1     3.2   834.0   0.00  
  36    2:40     -1   30.6    93    2.5   358     3.9   834.0   0.00  
  36    2:50      0   30.2    93    3.2   360     4.1   833.9   0.00  
  36    3:00     -1   29.9    93    4.0   357     6.3   833.9   0.00  
  36    3:10      0   29.3    93    3.5     3     4.7   833.9   0.00  
  36    3:20      0   29.6    94    3.9    12     6.9   833.9   0.00  
  36    3:30      0   29.8    93    2.8     8     4.8   833.7   0.00  
  36    3:40      0   29.3    93    0.9   358     2.8   833.6   0.00  
  36    3:50      0   29.3    94    0.2    11     1.1   833.5   0.00  
  36    4:00      0   27.4    93    0.4    13     1.2   833.4   0.00  
  36    4:10      0   26.3    94    1.1    85     3.6   833.5   0.00  
  36    4:20      0   27.5    95    2.0     8     4.1   833.5   0.00  
  36    4:30      0   28.1    94    1.0     1     4.1   833.4   0.00  
  36    4:40     -1   27.9    94    2.7   339     7.7   833.3   0.00  
  36    4:50      0   28.1    94    2.4   327     5.2   833.3   0.00  
  36    5:00      0   28.1    93    1.3   311     3.2   833.3   0.00  
  36    5:10      0   27.7    93    0.5   313     2.5   833.3   0.00  
  36    5:20      0   27.2    93    0.2   265     1.2   833.4   0.00  
  36    5:30      0   26.8    94    0.2   273     1.2   833.2   0.00  
  36    5:40      0   27.0    94    1.9   279     3.5   833.2   0.00  
  36    5:50      0   27.1    94    1.3   283     2.4   833.2   0.00  
  36    6:00     -1   26.1    94    1.7   285     4.2   833.2   0.00  
  36    6:10      0   26.2    94    2.9   270     5.8   833.1   0.00  
  36    6:20      0   26.8    94    4.1   323     7.2   833.3   0.00  
  36    6:30      0   26.6    93    4.5     4     6.0   833.4   0.00  
  36    6:40      3   27.0    93    1.5    26     3.9   833.4   0.00  
  36    6:50      8   27.3    93    1.8   357     3.4   833.3   0.00  
  36    7:00      9   27.3    93    1.7   352     2.5   833.3   0.00  
  36    7:10     15   27.4    93    2.7   309     3.9   833.3   0.00  
  36    7:20     22   27.3    93    3.4   310     5.1   833.3   0.00  
  36    7:30     29   27.1    94    3.7   318     4.9   833.4   0.00  
  36    7:40     46   28.4    94    4.3     2     6.3   833.5   0.00  
  36    7:50     48   29.1    93    3.6     0     6.6   833.6   0.00  
  36    8:00     55   29.6    92    2.5    10     5.2   833.6   0.00  
  36    8:10     71   30.3    92    2.1    33     3.3   833.7   0.00  
  36    8:20     79   31.3    92    2.4    22     3.9   833.7   0.00  
  36    8:30     99   32.2    91    1.6     6     3.8   833.8   0.00  
  36    8:40    127   32.7    90    0.4   294     1.7   833.8   0.00  
  36    8:50    158   33.5    89    0.0     0     0.0   833.8   0.00  
  36    9:00    203   35.1    87    0.1   294     0.9   833.8   0.00  
  36    9:10    207   35.7    84    0.0     0     0.0   833.8   0.00  
  36    9:20    215   36.8    82    0.5   309     2.4   833.7   0.00  
  36    9:30    218   35.8    85    2.7   324     4.1   833.7   0.00  
  36    9:40    235   35.6    87    2.1   336     3.9   833.7   0.00  
  36    9:50    259   37.1    84    1.3   338     2.2   833.6   0.00  
  36   10:00    242   38.0    81    0.4   331     1.5   833.7   0.00  
  36   10:10    280   38.7    80    0.0     0     0.0   833.7   0.00  
  36   10:20    301   40.0    77    0.0     0     0.0   833.7   0.00  
  36   10:30    329   41.5    73    0.1   343     1.1   833.5   0.00  
  36   10:40    321   40.9    75    0.4   240     1.6   833.5   0.00  
  36   10:50    380   41.6    72    2.6   179     4.7   833.4   0.00  
  36   11:00    450   42.4    71    2.4   170     4.2   833.3   0.00  
  36   11:10    422   42.8    70    2.7   159     5.7   833.1   0.00  
  36   11:20    339   42.4    71    6.0   153     9.6   833.0   0.00  
  36   11:30    324   41.8    72    6.8   157    10.1   832.8   0.00  
  36   11:40    383   41.6    72    8.6   146    12.3   832.5   0.00  
  36   11:50    443   41.9    72    9.3   146    13.4   832.3   0.00  
  36   12:00    447   42.8    71    8.9   148    12.8   832.1   0.00  
  36   12:10    566   43.9    68    9.1   156    14.2   831.9   0.00  
  36   12:20    527   44.1    68   11.2   149    16.4   831.8   0.00  
  36   12:30    535   43.9    68   11.7   147    15.4   831.5   0.00  
  36   12:40    403   44.0    68   10.0   147    14.2   831.2   0.00  
  36   12:50    318   43.7    69    8.8   153    14.9   831.0   0.00  
  36   13:00    290   43.6    70    8.7   155    12.4   830.7   0.00  
  36   13:10    267   43.4    71    8.2   160    10.7   830.4   0.00  
  36   13:20    261   43.2    71    7.8   160    10.4   830.1   0.00  
  36   13:30    243   43.5    71    7.1   147    10.3   829.7   0.00  
  36   13:40    245   44.1    70    5.6   162     8.3   829.7   0.00  
  36   13:50    210   43.6    70    8.6   154    11.4   829.6   0.00  
  36   14:00    202   43.0    71    8.8   150    12.1   829.4   0.00  
  36   14:10    215   43.3    71    8.2   150    11.0   829.2   0.00  
  36   14:20    190   43.6    70    8.0   147    11.0   829.2   0.00  
  36   14:30    170   43.8    68    8.1   142    11.1   829.0   0.00  
  36   14:40    156   43.8    67    8.2   146    12.5   828.9   0.00  
  36   14:50    148   43.8    68    7.2   143    10.8   828.8   0.00  
  36   15:00    151   43.8    68    7.2   154    10.7   828.8   0.00  
  36   15:10    139   43.8    69    7.5   159    11.0   828.8   0.00  
  36   15:20    127   43.6    69    9.4   150    13.0   828.6   0.00  
  36   15:30    104   43.4    70    9.0   150    12.3   828.6   0.00  
  36   15:40     80   43.1    72    8.3   154    12.6   828.5   0.00  
  36   15:50     60   42.7    73    8.0   152    10.7   828.5   0.00  
  36   16:00     45   42.3    73    8.7   151    11.2   828.4   0.00  
  36   16:10     41   42.0    73    8.2   149    11.5   828.4   0.00  
  36   16:20     33   41.8    73    6.5   146    10.4   828.5   0.00  
  36   16:30     25   41.5    74    5.1   148     7.2   828.6   0.00  
  36   16:40     13   41.2    74    5.1   157     7.9   828.6   0.00  
  36   16:50     10   40.7    76    5.4   148     8.2   828.6   0.00  
  36   17:00      4   40.5    76    5.2   148     8.2   828.3   0.00  
  36   17:10      4   40.1    78    4.5   139     5.9   828.2   0.00  
  36   17:20      2   39.8    80    3.8   146     5.8   828.1   0.00  
  36   17:30      0   39.5    81    4.6   143     6.5   828.1   0.00  
  36   17:40      0   39.3    81    5.2   149     8.2   828.1   0.00  
  36   17:50      0   39.3    80    5.7   146     7.9   828.1   0.00  
  36   18:00      0   39.2    80    6.1   140     8.1   828.0   0.00  
  36   18:10     -2   39.5    79    6.3   140     8.5   827.9   0.00  
  36   18:20      0   39.2    80    6.5   146     8.7   827.8   0.00  
  36   18:30      0   38.8    80    5.2   144     7.2   827.8   0.00  
  36   18:40      0   38.6    80    6.7   138     8.8   827.6   0.00  
  36   18:50     -1   38.9    78    5.4   143     7.7   827.5   0.00  
  36   19:00      0   38.3    80    3.6   118     6.1   827.4   0.00  
  36   19:10      0   38.8    78    2.9   100     4.6   827.4   0.00  
  36   19:20      0   38.3    79    5.4   146     8.3   827.3   0.00  
  36   19:30      0   38.2    79    6.4   154     8.9   827.4   0.00  
  36   19:40      0   38.1    80    5.8   139     8.2   827.5   0.00  
  36   19:50      0   38.2    80    6.1   139     9.0   827.5   0.00  
  36   20:00     -1   38.8    77    6.7   146    10.9   827.4   0.00  

Return to Duckwater graphs page.


Western Regional Climate Center,wrcc@dri.edu